Home > Products > Valid Products > SSM

000
SMZS01 NSTU 310557
SSMPPG
AAXX 31064
91765 32469 79904 10268 20240 30113 40117 51008 83872 333 56099
70033 555 93106=




000
SMZS01 NSTU 302356
SSMPPG
AAXX 31004
91765 11469 81205 10274 20240 30115 40119 56019 60054 70282 8382/
333 20242 56339 58011 70053 555 93100=




000
SMZS01 NSTU 301754
SSMPPG
AAXX 30184
91765 11362 83506 10242 20232 30135 40139 52024 60021 78082 884//
333 56899 70041 555 93018=




000
SMZS01 NSTU 301155
SSMPPG
AAXX 30124
91765 32466 80712 10263 20243 30119 40122 56007 85871 333 10321
56299 58005 70020 555 93012=




000
SMZS01 NSTU 300605
SSMPPG
AAXX 30064
91765 11466 60911 10277 20252 30110 40113 52019 60021 72581 86400
333 5629/ 70020 555 93006=




000
SMZS01 NSTU 292353
SSMPPG
AAXX 30004
91765 12569 31011 10318 20261 30105 40108 56017 69904 83100 333
20269 562// 58000 555 93000=




000
SMZS01 NSTU 291802
SSMPPG
AAXX 29184
91765 32569 60915 10284 20244 30117 40120 51015 86800 333 562// 555
92918=




000
SMZS01 NSTU 291801
SSMPPG
AAXX 29184
91765 32569 60915 10284 20244 30117 40120 51015 86800 333 562// 555
92918=




000
SMZS01 NSTU 291156
SSMPPG
AAXX 29124
91765 11566 31111 10272 20252 30113 40117 56010 69901 70181 83100
333 10319 562// 59003 555 92912




000
SMZS01 NSTU 290555
SSMPPG
AAXX 29064
91765 32566 41111 10284 20250 30105 40108 52010 84800 333 562//
70038 555 92906=




000
SMZS01 NSTU 282355
SSMPPG
AAXX 29004
91765 12469 21011 10319 20265 30105 40108 56003 60044 81105 333
20253 562/9 59002 70038 555 92900=




000
SMZS01 NSTU 281754
SSMPPG
AAXX 28184
91765 11469 51412 10270 20238 30112 40115 52008 69901 70282 83171
333 56399 70066 555 92818=




000
SMZS01 NSTU 281201
SSMPPG
AAXX 28124
91765 11462 81518 10253 20239 30117 40120 56017 60041 78082 888//
333 10297 56399 58012 70107 555 92812




    US Dept of Commerce
    National Oceanic and Atmospheric Administration
    National Weather Service
    1325 East West Highway
    Silver Spring, MD 20910
    Page Author: NWS Internet Services Team
Disclaimer
Information Quality
Credits
Glossary
Privacy Policy
Freedom of Information Act (FOIA)
About Us
Career Opportunities